Time;durP1;ratioP1;P1;durP2;ratioP2;P2;SDS_P1;SDS_P2;PMS_P1;PMS_P2;Temp;Humidity;BMP_temperature;BMP_pressure;BME280_temperature;BME280_humidity;BME280_pressure;Samples;Min_cycle;Max_cycle;Signal;HPM_P1;HPM_P2
2021/12/12 00:00:46;;;;;;;11.38;9.75;;;;;;;7.66;51.11;96033.19;5011530;28;20025;-58
2021/12/12 00:03:32;;;;;;;11.82;10.10;;;;;;;7.38;52.69;96039.00;5011615;28;20412;-58
2021/12/12 00:05:59;;;;;;;11.35;10.25;;;;;;;7.70;51.60;96039.56;5015121;28;20108;-58
2021/12/12 00:08:25;;;;;;;11.70;10.60;;;;;;;8.23;50.95;96018.88;5011119;28;20084;-57
2021/12/12 00:10:56;;;;;;;12.65;11.02;;;;;;;8.49;50.55;96005.63;5010016;28;20029;-58
2021/12/12 00:13:27;;;;;;;13.10;11.23;;;;;;;8.47;49.87;96021.00;5011465;28;20041;-58
2021/12/12 00:15:52;;;;;;;12.68;11.48;;;;;;;8.72;49.75;96033.41;5011733;28;20472;-57
2021/12/12 00:18:18;;;;;;;12.70;11.40;;;;;;;8.73;49.39;96032.34;5011242;28;20037;-58
2021/12/12 00:20:46;;;;;;;12.68;11.38;;;;;;;8.66;49.61;96048.56;5012667;28;20057;-58
2021/12/12 00:23:12;;;;;;;12.27;11.07;;;;;;;8.69;49.62;96052.50;5015053;28;20028;-58
2021/12/12 00:25:59;;;;;;;12.13;11.02;;;;;;;9.03;49.45;96065.97;5011423;28;20030;-57
2021/12/12 00:28:27;;;;;;;14.40;12.40;;;;;;;9.27;49.27;96066.94;5011559;28;20484;-58
2021/12/12 00:30:59;;;;;;;11.32;10.13;;;;;;;9.18;49.08;96057.16;5010113;28;20387;-58
2021/12/12 00:33:26;;;;;;;13.45;12.07;;;;;;;9.25;48.59;96066.38;5011298;28;20375;-58
2021/12/12 00:35:51;;;;;;;13.05;11.75;;;;;;;9.08;48.92;96053.47;5010888;28;20084;-57
2021/12/12 00:38:25;;;;;;;13.35;11.95;;;;;;;9.30;49.10;96070.88;5014640;28;20026;-57
2021/12/12 00:40:53;;;;;;;13.60;12.18;;;;;;;9.35;48.87;96076.16;5010638;28;20022;-58
2021/12/12 00:43:33;;;;;;;13.10;11.48;;;;;;;9.44;49.02;96071.09;5010879;28;20057;-58
2021/12/12 00:46:02;;;;;;;14.43;12.63;;;;;;;9.46;49.12;96061.78;5011111;28;20025;-58
2021/12/12 00:48:29;;;;;;;13.75;12.30;;;;;;;9.47;49.17;96063.38;5009762;28;20049;-58
2021/12/12 00:50:56;;;;;;;13.15;11.52;;;;;;;9.39;48.60;96082.53;5010238;28;20029;-57
2021/12/12 00:53:22;;;;;;;12.68;11.38;;;;;;;9.35;48.37;96053.06;5018752;28;20032;-58
2021/12/12 00:55:51;;;;;;;14.52;13.02;;;;;;;9.14;49.27;96056.88;5010990;28;20025;-58
2021/12/12 00:58:18;;;;;;;13.60;12.25;;;;;;;9.07;49.51;96046.56;5009575;28;20038;-57
2021/12/12 01:00:53;;;;;;;13.85;12.52;;;;;;;8.81;50.24;96077.69;5010425;28;20026;-57
2021/12/12 01:03:25;;;;;;;15.25;13.65;;;;;;;9.11;49.86;96073.38;5010660;28;20052;-57
2021/12/12 01:05:52;;;;;;;13.50;12.10;;;;;;;8.33;51.06;96063.94;5010199;28;20033;-57
2021/12/12 01:08:18;;;;;;;13.80;12.30;;;;;;;8.57;50.87;96076.69;5014108;28;20176;-57
2021/12/12 01:10:50;;;;;;;13.10;11.77;;;;;;;8.12;51.71;96075.63;5010077;28;20104;-56
2021/12/12 01:13:16;;;;;;;13.68;12.20;;;;;;;7.55;52.93;96047.47;5010352;28;20072;-57
2021/12/12 01:15:48;;;;;;;15.52;12.85;;;;;;;7.19;55.09;96088.94;5009206;28;20065;-57
2021/12/12 01:18:19;;;;;;;13.88;12.35;;;;;;;7.76;53.90;96091.47;5010318;28;20117;-56
2021/12/12 01:20:57;;;;;;;14.73;12.40;;;;;;;7.19;55.14;96102.97;5009581;28;20026;-58
2021/12/12 01:23:28;;;;;;;14.35;12.90;;;;;;;7.42;53.86;96069.16;5013858;28;20511;-56
2021/12/12 01:25:54;;;;;;;14.90;13.40;;;;;;;7.11;55.55;96079.63;5009088;28;20029;-57
2021/12/12 01:28:24;;;;;;;15.27;13.13;;;;;;;7.50;54.97;96092.47;5010289;28;20112;-57
2021/12/12 01:30:53;;;;;;;13.88;12.48;;;;;;;6.93;56.07;96098.59;5009813;28;20475;-57
2021/12/12 01:33:32;;;;;;;13.50;12.05;;;;;;;6.08;59.05;96124.16;5008585;28;20156;-57
2021/12/12 01:35:59;;;;;;;14.55;13.05;;;;;;;6.07;59.81;96112.00;5009769;28;20112;-58
2021/12/12 01:41:09;;;;;;;17.10;13.43;;;;;;;5.81;60.82;96109.13;5009458;28;20033;-58
2021/12/12 01:43:42;;;;;;;14.43;12.90;;;;;;;6.41;58.63;96113.34;5008173;28;20435;-57
2021/12/12 01:46:20;;;;;;;14.63;13.13;;;;;;;6.35;58.12;96116.22;5008675;28;20125;-57
2021/12/12 01:48:51;;;;;;;16.70;14.52;;;;;;;6.99;57.37;96116.09;5008722;28;20017;-57
2021/12/12 01:51:17;;;;;;;15.67;14.03;;;;;;;7.03;57.61;96135.69;5007931;28;20079;-57
2021/12/12 01:53:47;;;;;;;15.93;14.32;;;;;;;7.53;55.01;96129.03;5013238;28;20407;-57
2021/12/12 01:56:23;;;;;;;17.58;14.38;;;;;;;7.32;56.27;96128.16;5009561;28;20030;-58
2021/12/12 01:58:55;;;;;;;15.32;13.63;;;;;;;6.74;57.10;96103.50;5008641;28;20026;-57
2021/12/12 02:01:30;;;;;;;13.70;12.32;;;;;;;6.61;57.67;96109.28;5009630;28;20030;-57
2021/12/12 02:04:04;;;;;;;15.98;14.25;;;;;;;6.90;57.06;96131.63;5010294;28;20615;-58
2021/12/12 02:06:30;;;;;;;15.98;12.77;;;;;;;6.30;58.81;96132.03;5009658;28;20075;-57
2021/12/12 02:08:58;;;;;;;15.43;13.70;;;;;;;7.12;56.70;96118.28;5016353;28;20498;-57
2021/12/12 02:11:29;;;;;;;15.50;13.90;;;;;;;6.74;57.40;96116.72;5001691;28;20505;-57
2021/12/12 02:13:59;;;;;;;13.43;12.10;;;;;;;6.16;58.82;96118.44;5009832;28;20030;-57
2021/12/12 02:16:27;;;;;;;17.20;14.27;;;;;;;7.03;57.19;96109.25;5010062;28;20128;-57
2021/12/12 02:18:56;;;;;;;15.95;14.32;;;;;;;7.06;57.07;96148.38;5009674;28;20547;-57
2021/12/12 02:21:31;;;;;;;16.65;13.85;;;;;;;6.88;56.69;96133.75;5007853;28;20041;-57
2021/12/12 02:37:28;;;;;;;16.48;14.50;;;;;;;7.63;56.04;96134.38;5012827;28;20025;-57
2021/12/12 02:39:55;;;;;;;15.00;13.45;;;;;;;7.20;56.17;96141.59;5012819;28;20097;-58
2021/12/12 02:42:22;;;;;;;17.08;14.55;;;;;;;7.31;55.33;96115.97;5008014;28;20060;-58
2021/12/12 02:44:50;;;;;;;17.35;15.18;;;;;;;7.82;55.20;96124.06;5009462;28;20069;-58
2021/12/12 02:47:19;;;;;;;16.52;14.63;;;;;;;8.08;53.90;96123.03;5009412;28;20028;-58
2021/12/12 02:52:20;;;;;;;16.75;14.90;;;;;;;7.99;54.50;96126.50;5012773;28;20655;-57
2021/12/12 02:54:46;;;;;;;14.70;13.30;;;;;;;7.47;55.10;96132.69;5011425;28;20068;-57
2021/12/12 02:57:16;;;;;;;15.13;13.63;;;;;;;7.44;55.28;96157.06;5012772;28;20476;-57
2021/12/12 02:59:48;;;;;;;14.98;13.50;;;;;;;7.31;55.98;96153.00;5012716;28;20052;-57
2021/12/12 03:02:23;;;;;;;18.50;14.35;;;;;;;7.40;55.82;96151.47;5012791;28;20113;-57
2021/12/12 03:04:50;;;;;;;16.88;14.20;;;;;;;7.55;55.46;96153.38;5013072;28;20053;-57
2021/12/12 03:07:15;;;;;;;16.27;14.52;;;;;;;7.31;55.30;96126.56;5011074;28;20044;-59
2021/12/12 03:09:50;;;;;;;19.20;15.40;;;;;;;8.18;53.59;96150.63;5015874;28;20093;-57
2021/12/12 03:12:20;;;;;;;16.67;13.98;;;;;;;7.22;55.02;96136.06;5012434;28;20024;-57
2021/12/12 03:14:47;;;;;;;14.32;12.93;;;;;;;6.50;57.47;96116.34;5012733;28;20048;-57
2021/12/12 03:17:18;;;;;;;16.42;13.95;;;;;;;7.18;56.72;96151.66;5012463;28;20034;-57
2021/12/12 03:19:49;;;;;;;14.98;13.38;;;;;;;7.73;54.73;96146.84;5011001;28;20026;-57
2021/12/12 03:22:16;;;;;;;17.17;13.45;;;;;;;8.08;53.42;96140.78;5010520;28;20480;-57
2021/12/12 03:24:42;;;;;;;15.13;13.43;;;;;;;8.15;52.82;96136.06;5015006;28;20058;-57
2021/12/12 03:27:08;;;;;;;16.70;12.57;;;;;;;7.43;54.37;96156.25;5011021;28;20033;-57
2021/12/12 03:29:36;;;;;;;14.50;13.00;;;;;;;8.21;53.39;96147.44;5012262;28;20026;-57
2021/12/12 03:32:09;;;;;;;13.80;12.40;;;;;;;6.86;56.21;96143.81;5011690;28;20037;-57
2021/12/12 03:34:38;;;;;;;18.30;13.15;;;;;;;7.53;55.29;96161.59;5011735;28;20030;-57
2021/12/12 03:37:07;;;;;;;16.80;13.15;;;;;;;7.00;56.20;96168.72;5010357;28;20030;-57
2021/12/12 03:39:35;;;;;;;14.95;13.38;;;;;;;8.24;53.74;96154.84;5014399;28;20025;-57
2021/12/12 03:42:06;;;;;;;15.35;13.77;;;;;;;8.04;53.83;96142.41;5011957;28;20511;-57
2021/12/12 03:44:34;;;;;;;14.35;12.95;;;;;;;7.81;53.43;96149.75;5011215;28;20109;-57
2021/12/12 03:47:08;;;;;;;15.77;12.82;;;;;;;7.42;55.05;96156.50;5012278;28;20101;-57
2021/12/12 03:49:37;;;;;;;15.55;13.00;;;;;;;7.69;54.59;96154.50;5012004;28;20022;-57
2021/12/12 03:52:07;;;;;;;13.15;11.90;;;;;;;7.96;53.73;96150.84;5010887;28;20025;-57
2021/12/12 03:54:34;;;;;;;14.50;13.00;;;;;;;8.28;52.80;96146.13;5015941;28;20084;-57
2021/12/12 03:57:00;;;;;;;15.23;12.85;;;;;;;8.48;51.88;96128.66;5012009;28;20032;-57
2021/12/12 03:59:25;;;;;;;14.88;13.43;;;;;;;8.99;51.53;96150.59;5010174;28;20165;-59
2021/12/12 04:01:53;;;;;;;13.38;12.02;;;;;;;8.22;51.93;96147.19;5011821;28;20634;-57
2021/12/12 04:04:24;;;;;;;13.60;11.80;;;;;;;8.80;51.39;96161.00;5010500;28;20037;-57
2021/12/12 04:06:50;;;;;;;16.97;13.63;;;;;;;9.03;50.80;96161.50;5009922;28;20026;-58
2021/12/12 04:09:17;;;;;;;14.23;12.70;;;;;;;8.68;50.65;96135.81;5013689;28;20022;-58
2021/12/12 04:11:58;;;;;;;14.00;12.60;;;;;;;9.10;50.67;96165.44;5011451;28;20479;-58
2021/12/12 04:14:24;;;;;;;13.43;12.05;;;;;;;8.74;50.85;96134.72;5011702;28;20064;-57
2021/12/12 04:16:55;;;;;;;14.60;12.98;;;;;;;8.79;51.07;96150.63;5011370;28;20036;-58
2021/12/12 04:19:21;;;;;;;15.55;12.75;;;;;;;8.46;51.35;96162.59;5009891;28;20475;-58
2021/12/12 04:21:48;;;;;;;14.25;12.75;;;;;;;8.03;52.50;96154.81;5010900;28;20034;-57
2021/12/12 04:24:26;;;;;;;14.00;12.43;;;;;;;8.04;52.80;96169.69;5013491;28;20010;-57
2021/12/12 04:26:53;;;;;;;16.23;12.45;;;;;;;8.42;52.61;96180.09;5011247;28;20025;-56
2021/12/12 04:29:25;;;;;;;16.08;13.00;;;;;;;8.53;51.37;96142.72;5010985;28;20022;-57
2021/12/12 04:31:56;;;;;;;16.80;13.88;;;;;;;8.81;51.21;96178.50;5011071;28;20018;-57
2021/12/12 04:34:25;;;;;;;15.70;13.02;;;;;;;7.67;53.34;96183.06;5010736;28;20030;-57
2021/12/12 04:36:52;;;;;;;17.17;13.65;;;;;;;7.89;52.63;96174.16;5010855;28;20069;-57
2021/12/12 04:39:26;;;;;;;15.30;12.80;;;;;;;7.38;54.37;96197.78;5014184;28;20115;-58
2021/12/12 04:41:56;;;;;;;16.88;14.50;;;;;;;7.27;54.88;96194.31;5014536;28;20062;-57
2021/12/12 04:44:30;;;;;;;17.10;14.57;;;;;;;7.88;53.94;96213.06;5009602;28;20022;-58
2021/12/12 04:49:56;;;;;;;15.43;13.65;;;;;;;7.55;53.68;96215.06;5010886;28;20032;-58
2021/12/12 04:52:53;;;;;;;15.70;12.93;;;;;;;7.56;54.34;96218.50;5010184;28;20083;-58
2021/12/12 04:55:44;;;;;;;17.02;13.05;;;;;;;8.09;53.51;96219.25;5014701;28;20018;-57
2021/12/12 04:58:16;;;;;;;16.85;13.05;;;;;;;7.32;54.38;96145.88;5010689;28;20049;-57
2021/12/12 05:00:49;;;;;;;;;;;;;;;7.45;54.63;96222.97;5009386;28;20104;-57
2021/12/12 05:03:55;;;;;;;13.27;11.88;;;;;;;8.19;52.92;96221.09;5009125;28;19909;-57
2021/12/12 05:06:33;;;;;;;15.77;12.18;;;;;;;7.94;53.41;96227.16;5010531;28;20115;-57
2021/12/12 05:09:11;;;;;;;14.65;12.65;;;;;;;7.74;53.59;96231.31;5012203;28;20029;-57
2021/12/12 05:11:58;;;;;;;13.52;11.88;;;;;;;7.77;53.28;96236.06;5009222;28;20024;-57
2021/12/12 05:14:28;;;;;;;16.75;12.57;;;;;;;6.25;57.78;96235.81;4990948;28;20069;-58
2021/12/12 05:17:04;;;;;;;15.48;12.20;;;;;;;6.76;56.12;96229.16;4988820;28;20034;-57
2021/12/12 05:19:31;;;;;;;15.55;12.60;;;;;;;6.94;55.99;96227.16;4990688;28;20030;-57
2021/12/12 05:22:05;;;;;;;15.35;13.07;;;;;;;7.10;56.86;96251.88;4992035;28;20027;-57
2021/12/12 05:24:31;;;;;;;13.48;11.75;;;;;;;6.74;55.65;96220.66;5010692;28;20470;-58
2021/12/12 05:27:04;;;;;;;12.52;11.23;;;;;;;7.02;55.78;96251.28;5010135;28;20105;-58
2021/12/12 05:29:39;;;;;;;12.35;10.98;;;;;;;6.54;57.10;96254.06;4989000;28;20501;-57
2021/12/12 05:32:06;;;;;;;12.32;11.02;;;;;;;7.22;55.05;96218.88;4990374;28;20025;-58
2021/12/12 05:34:34;;;;;;;13.30;10.20;;;;;;;6.52;56.66;96246.38;4990639;28;20088;-57
2021/12/12 05:37:01;;;;;;;11.32;10.10;;;;;;;6.28;57.46;96256.44;4991761;28;20033;-58
2021/12/12 05:39:28;;;;;;;12.07;10.65;;;;;;;6.12;57.55;96260.78;5013247;28;20025;-58
2021/12/12 05:41:56;;;;;;;12.60;11.27;;;;;;;6.86;55.75;96267.28;5008591;28;20061;-57
2021/12/12 05:44:23;;;;;;;10.95;9.88;;;;;;;6.16;56.92;96219.63;5010137;28;20037;-57
2021/12/12 05:46:49;;;;;;;11.73;10.63;;;;;;;6.92;56.27;96219.47;5009920;28;20097;-58
2021/12/12 05:49:15;;;;;;;10.52;9.43;;;;;;;6.80;55.59;96258.50;5008427;28;20473;-57
2021/12/12 05:51:41;;;;;;;11.35;10.20;;;;;;;6.75;56.28;96258.47;5008521;28;20420;-58
2021/12/12 05:54:06;;;;;;;12.18;10.30;;;;;;;6.22;57.10;96241.59;5011712;28;20024;-57
2021/12/12 05:56:36;;;;;;;10.68;9.63;;;;;;;6.22;57.28;96258.25;5009911;28;20022;-58
2021/12/12 05:59:04;;;;;;;11.52;9.65;;;;;;;6.24;56.79;96216.53;5009833;28;20120;-57
2021/12/12 06:01:31;;;;;;;10.85;9.80;;;;;;;6.10;57.82;96262.09;5008427;28;20093;-57
2021/12/12 06:03:57;;;;;;;9.88;8.88;;;;;;;5.95;58.54;96274.06;5010052;28;20030;-57
2021/12/12 06:06:31;;;;;;;10.52;9.15;;;;;;;6.42;57.04;96283.28;5008764;28;20068;-57
2021/12/12 06:08:59;;;;;;;9.70;8.45;;;;;;;6.66;56.21;96267.94;5012516;28;20048;-57
2021/12/12 06:11:27;;;;;;;8.88;8.07;;;;;;;6.62;56.79;96285.34;5005548;28;20026;-58
2021/12/12 06:13:53;;;;;;;10.25;9.20;;;;;;;6.50;56.36;96259.84;5009857;28;20051;-57
2021/12/12 06:16:20;;;;;;;9.00;8.10;;;;;;;6.03;57.81;96285.22;5009955;28;20497;-57
2021/12/12 06:18:50;;;;;;;9.50;8.52;;;;;;;6.40;57.06;96293.31;5009659;28;20037;-57
2021/12/12 06:21:16;;;;;;;9.60;8.50;;;;;;;6.44;55.80;96275.91;5008342;28;20026;-57
2021/12/12 06:23:42;;;;;;;10.10;9.05;;;;;;;6.30;56.65;96282.66;5009246;28;20066;-57
2021/12/12 06:26:08;;;;;;;10.18;8.98;;;;;;;6.63;55.37;96263.94;5011675;28;20030;-57
2021/12/12 06:28:38;;;;;;;11.38;10.20;;;;;;;7.48;53.21;96279.91;5010687;28;20494;-57
2021/12/12 06:31:06;;;;;;;9.50;8.60;;;;;;;7.37;53.23;96287.00;5013234;28;20061;-57
2021/12/12 06:33:32;;;;;;;8.98;8.07;;;;;;;6.09;56.01;96276.31;5011963;28;20022;-57
2021/12/12 06:35:58;;;;;;;9.93;8.95;;;;;;;6.18;56.59;96303.91;5013517;28;20105;-57
2021/12/12 06:38:25;;;;;;;9.98;8.50;;;;;;;6.55;55.16;96306.66;5011720;28;20026;-57
2021/12/12 06:40:53;;;;;;;9.82;8.93;;;;;;;6.17;57.23;96308.38;5015512;28;20061;-58
2021/12/12 06:43:21;;;;;;;8.25;7.45;;;;;;;5.82;56.95;96292.09;5012912;28;20060;-57
2021/12/12 06:45:48;;;;;;;7.60;6.90;;;;;;;5.73;57.43;96307.53;5013229;28;20029;-57
2021/12/12 06:48:14;;;;;;;7.53;6.75;;;;;;;5.38;58.04;96321.06;5013436;28;20511;-57
2021/12/12 06:50:42;;;;;;;8.02;7.22;;;;;;;5.98;55.62;96289.41;5011781;28;20388;-58
2021/12/12 06:53:11;;;;;;;8.40;7.65;;;;;;;6.34;55.35;96289.81;5011318;28;20029;-57
2021/12/12 06:55:44;;;;;;;9.32;8.43;;;;;;;6.79;54.57;96309.81;5015316;28;20029;-57
2021/12/12 06:58:11;;;;;;;8.82;7.90;;;;;;;6.62;54.21;96296.72;5012941;28;20033;-57
2021/12/12 07:00:38;;;;;;;9.65;8.65;;;;;;;7.70;52.70;96308.88;5011144;28;20028;-57
2021/12/12 07:03:04;;;;;;;9.00;8.10;;;;;;;7.86;51.05;96307.91;5011490;28;20025;-57
2021/12/12 07:05:30;;;;;;;8.73;7.50;;;;;;;7.03;52.03;96283.84;5012768;28;20022;-57
2021/12/12 07:07:57;;;;;;;9.50;7.55;;;;;;;7.33;51.88;96320.31;5012560;28;20108;-57
2021/12/12 07:10:25;;;;;;;9.70;8.55;;;;;;;7.31;52.00;96317.09;5015804;28;20022;-57
2021/12/12 07:12:55;;;;;;;8.27;7.38;;;;;;;7.20;52.49;96320.72;5012483;28;20030;-58
2021/12/12 07:15:24;;;;;;;10.55;8.68;;;;;;;6.69;53.11;96299.94;5012619;28;20668;-57
2021/12/12 07:17:54;;;;;;;8.18;7.38;;;;;;;7.05;52.12;96302.88;5012610;28;20022;-57
2021/12/12 07:20:20;;;;;;;8.10;6.93;;;;;;;6.40;54.01;96323.19;5012114;28;20029;-57
2021/12/12 07:22:45;;;;;;;7.50;6.75;;;;;;;6.27;54.83;96318.28;5011860;28;20033;-56
2021/12/12 07:25:11;;;;;;;8.73;6.63;;;;;;;7.20;51.70;96326.81;5016084;28;20028;-56
2021/12/12 07:27:36;;;;;;;7.25;6.55;;;;;;;6.39;54.13;96315.47;5012254;28;20025;-56
2021/12/12 07:30:04;;;;;;;7.75;6.82;;;;;;;5.98;55.24;96326.38;5012111;28;20026;-56
2021/12/12 07:32:30;;;;;;;7.45;6.63;;;;;;;5.84;55.80;96348.09;5012187;28;20030;-56
2021/12/12 07:34:55;;;;;;;7.47;6.63;;;;;;;6.47;53.80;96338.84;5012486;28;20460;-57
2021/12/12 07:37:21;;;;;;;8.00;7.20;;;;;;;6.80;53.63;96350.28;5012132;28;20060;-57
2021/12/12 07:39:48;;;;;;;8.27;7.47;;;;;;;7.76;51.39;96343.09;5013169;28;20112;-56
2021/12/12 07:42:16;;;;;;;7.53;6.80;;;;;;;7.70;50.69;96367.94;5011739;28;20116;-58
2021/12/12 07:44:44;;;;;;;6.90;6.28;;;;;;;7.03;52.58;96352.63;5012215;28;20025;-56
2021/12/12 07:47:13;;;;;;;7.53;6.80;;;;;;;7.84;50.41;96331.22;5010741;28;20470;-56
2021/12/12 07:49:47;;;;;;;8.02;7.03;;;;;;;8.68;50.04;96346.13;5011310;28;20026;-57
2021/12/12 07:52:19;;;;;;;8.13;6.82;;;;;;;9.14;48.32;96354.16;5011800;28;20032;-56
2021/12/12 07:54:48;;;;;;;7.75;6.95;;;;;;;9.28;47.44;96354.44;5015094;28;20033;-56
2021/12/12 07:57:14;;;;;;;7.22;6.63;;;;;;;8.76;48.29;96366.06;5015359;28;20022;-57
2021/12/12 07:59:40;;;;;;;9.32;6.57;;;;;;;9.06;47.36;96367.97;5011330;28;20057;-57
2021/12/12 08:02:10;;;;;;;7.65;6.95;;;;;;;9.18;47.67;96357.09;5011827;28;20092;-57
2021/12/12 08:04:37;;;;;;;8.00;6.68;;;;;;;8.18;48.94;96339.56;5011668;28;20030;-57
2021/12/12 08:07:03;;;;;;;7.63;6.90;;;;;;;8.00;49.32;96356.72;5010932;28;20026;-56
2021/12/12 08:09:29;;;;;;;7.78;6.97;;;;;;;8.12;49.99;96364.47;5019071;28;20025;-55
2021/12/12 08:11:55;;;;;;;8.38;7.57;;;;;;;8.61;49.30;96358.88;5015019;28;20040;-56
2021/12/12 08:14:24;;;;;;;8.40;7.57;;;;;;;9.28;48.04;96349.13;5011830;28;20097;-56
2021/12/12 08:16:51;;;;;;;7.50;6.80;;;;;;;7.76;50.02;96332.50;5011764;28;20030;-56
2021/12/12 08:19:19;;;;;;;8.50;7.60;;;;;;;7.18;52.01;96360.69;5011307;28;20084;-57
2021/12/12 08:21:46;;;;;;;8.05;7.25;;;;;;;7.03;52.36;96374.56;5009879;28;20495;-56
2021/12/12 08:24:12;;;;;;;9.35;7.28;;;;;;;7.11;52.59;96360.06;5016938;28;20029;-56
2021/12/12 08:26:41;;;;;;;9.75;8.48;;;;;;;7.28;52.48;96336.16;5017511;28;20105;-56
2021/12/12 08:29:09;;;;;;;8.32;7.53;;;;;;;7.70;50.96;96370.59;5011194;28;20029;-57
2021/12/12 08:31:35;;;;;;;8.02;7.32;;;;;;;7.49;50.85;96363.56;5010109;28;20676;-57
2021/12/12 08:34:04;;;;;;;8.57;7.72;;;;;;;7.74;50.20;96341.75;5011426;28;20030;-57
2021/12/12 08:36:33;;;;;;;7.28;6.68;;;;;;;6.82;51.60;96345.53;5011252;28;20623;-57
2021/12/12 08:38:58;;;;;;;8.15;7.45;;;;;;;6.71;52.49;96349.94;5013967;28;20685;-57
2021/12/12 08:41:24;;;;;;;8.38;7.15;;;;;;;6.42;53.65;96354.66;5014158;28;20124;-57
2021/12/12 08:43:50;;;;;;;8.50;7.70;;;;;;;6.50;53.08;96339.16;5010913;28;20052;-57
2021/12/12 08:46:16;;;;;;;8.70;7.90;;;;;;;6.93;52.44;96347.22;5010968;28;20498;-57
2021/12/12 08:48:46;;;;;;;9.07;8.18;;;;;;;6.99;52.34;96367.38;5009654;28;20018;-58
2021/12/12 08:51:17;;;;;;;9.00;8.02;;;;;;;6.82;52.91;96374.63;5009541;28;20241;-58
2021/12/12 08:53:45;;;;;;;10.27;8.03;;;;;;;6.60;53.25;96364.88;5012024;28;20029;-57
2021/12/12 08:56:19;;;;;;;9.07;8.18;;;;;;;6.09;55.06;96363.47;5015873;28;20391;-58
2021/12/12 08:58:45;;;;;;;9.10;7.78;;;;;;;5.71;56.55;96367.72;5010699;28;20541;-57
2021/12/12 09:01:15;;;;;;;8.77;7.88;;;;;;;6.67;53.93;96364.69;5009084;28;20392;-58
2021/12/12 09:03:49;;;;;;;8.77;7.88;;;;;;;7.12;52.22;96350.31;5010837;28;20424;-58
2021/12/12 09:06:16;;;;;;;9.23;8.32;;;;;;;8.05;50.97;96348.81;5009242;28;20025;-56
2021/12/12 09:08:51;;;;;;;9.82;8.57;;;;;;;8.05;49.77;96355.97;5011810;28;20164;-57
2021/12/12 09:11:30;;;;;;;8.70;7.90;;;;;;;8.35;49.58;96363.25;5014630;28;20021;-57
2021/12/12 09:14:01;;;;;;;8.98;8.18;;;;;;;8.14;50.17;96365.03;5008965;28;20021;-57
2021/12/12 09:16:40;;;;;;;9.45;8.55;;;;;;;8.35;48.93;96368.56;5010330;28;20025;-57
2021/12/12 09:19:13;;;;;;;9.75;8.75;;;;;;;7.92;50.07;96343.97;5010150;28;20522;-57
2021/12/12 09:22:07;;;;;;;9.48;8.57;;;;;;;8.37;49.09;96357.72;5008850;28;20120;-57
2021/12/12 09:24:56;;;;;;;11.13;9.77;;;;;;;8.57;49.20;96365.75;5012949;28;20038;-57
2021/12/12 09:27:31;;;;;;;9.60;8.77;;;;;;;8.25;50.19;96371.97;5012487;28;20030;-57
2021/12/12 09:30:08;;;;;;;9.85;8.82;;;;;;;9.03;48.58;96365.84;5008508;28;20026;-58
2021/12/12 09:32:36;;;;;;;9.90;8.98;;;;;;;9.27;47.94;96371.44;5009762;28;20113;-58
2021/12/12 09:35:17;;;;;;;10.50;9.50;;;;;;;9.45;47.86;96370.09;5010073;28;20049;-58
2021/12/12 09:38:00;;;;;;;10.07;9.18;;;;;;;9.48;46.93;96373.03;5009963;28;20026;-57
2021/12/12 09:41:03;;;;;;;10.27;9.27;;;;;;;7.77;49.92;96383.59;5012980;28;20036;-57
2021/12/12 09:43:47;;;;;;;9.18;7.97;;;;;;;7.33;51.04;96380.38;4992913;28;20484;-57
2021/12/12 09:46:41;;;;;;;9.68;8.77;;;;;;;6.99;52.22;96389.34;5009980;28;20398;-57
2021/12/12 09:52:51;;;;;;;10.55;9.55;;;;;;;7.40;51.84;96386.25;5009555;28;20506;-58
2021/12/12 09:55:48;;;;;;;9.52;8.63;;;;;;;7.01;53.28;96381.16;5013069;23;20076;-65
2021/12/12 09:58:29;;;;;;;11.02;9.93;;;;;;;8.47;49.94;96369.16;5007033;28;20472;-66
2021/12/12 10:01:11;;;;;;;10.07;9.07;;;;;;;8.76;48.85;96366.06;5009491;28;20391;-70
2021/12/12 10:04:15;;;;;;;10.30;9.40;;;;;;;8.65;48.52;96361.78;5008403;28;20030;-70
2021/12/12 10:06:55;;;;;;;9.85;8.95;;;;;;;9.19;47.63;96356.81;5008685;28;20126;-70
2021/12/12 10:09:33;;;;;;;10.80;9.80;;;;;;;8.57;48.10;96350.63;5007520;28;20041;-70
2021/12/12 10:12:17;;;;;;;11.18;10.10;;;;;;;8.80;48.20;96357.31;5011183;28;20480;-68
2021/12/12 10:14:44;;;;;;;10.52;9.52;;;;;;;8.32;48.67;96282.38;5009395;28;20030;-67
2021/12/12 10:17:34;;;;;;;10.43;8.98;;;;;;;8.17;49.95;96350.44;5009466;28;20527;-67
2021/12/12 10:20:03;;;;;;;8.70;7.97;;;;;;;8.63;48.56;96354.09;5009247;28;20109;-67
2021/12/12 10:23:05;;;;;;;10.00;8.98;;;;;;;8.96;47.88;96342.22;5009047;28;20391;-67
2021/12/12 10:25:57;;;;;;;10.07;9.05;;;;;;;8.22;49.96;96342.50;5009756;28;20084;-70
2021/12/12 10:28:32;;;;;;;9.52;8.50;;;;;;;7.69;50.62;96275.53;4995386;28;20480;-71
2021/12/12 10:31:24;;;;;;;8.32;7.40;;;;;;;6.70;54.45;96346.47;5008859;28;20038;-68
2021/12/12 10:34:10;;;;;;;9.48;7.75;;;;;;;7.03;53.01;96323.50;5009542;28;20029;-67
2021/12/12 10:36:42;;;;;;;9.30;8.40;;;;;;;7.25;52.56;96308.34;5009654;28;20629;-66
2021/12/12 10:39:15;;;;;;;9.52;8.63;;;;;;;7.44;52.44;96335.22;5008436;28;20365;-66
2021/12/12 10:41:54;;;;;;;9.52;8.55;;;;;;;7.12;52.82;96324.66;5012814;28;20022;-67
2021/12/12 10:44:30;;;;;;;8.32;7.57;;;;;;;7.26;52.34;96340.88;5009616;28;20022;-70
2021/12/12 10:47:07;;;;;;;7.63;7.03;;;;;;;7.09;52.49;96327.78;5009403;28;20064;-67
2021/12/12 10:50:10;;;;;;;8.35;7.55;;;;;;;8.07;50.53;96322.03;5009357;28;20057;-64
2021/12/12 10:52:42;;;;;;;;;;;;;;;8.39;49.56;96329.06;5009743;28;20476;-64
2021/12/12 10:55:16;;;;;;;8.10;7.40;;;;;;;8.37;49.13;96305.50;5012226;28;20322;-64
2021/12/12 10:57:44;;;;;;;8.35;7.53;;;;;;;8.38;49.82;96322.19;5009540;28;20120;-65
2021/12/12 11:00:21;;;;;;;8.35;7.65;;;;;;;9.15;47.93;96307.97;5008918;28;20026;-65
2021/12/12 11:03:05;;;;;;;7.28;6.68;;;;;;;9.58;46.63;96311.16;5009411;28;20025;-64
2021/12/12 11:05:58;;;;;;;7.82;7.20;;;;;;;9.12;47.30;96303.22;5009290;28;20029;-66
2021/12/12 11:08:33;;;;;;;7.40;6.70;;;;;;;8.84;47.95;96318.56;4997895;28;20100;-65
2021/12/12 11:11:00;;;;;;;5.95;5.35;;;;;;;7.63;50.29;96327.66;5011043;28;20026;-65
2021/12/12 11:13:33;;;;;;;6.78;6.18;;;;;;;7.70;50.54;96299.09;5007805;28;20080;-65
2021/12/12 11:16:27;;;;;;;7.10;6.40;;;;;;;8.12;50.23;96313.31;5012697;28;20034;-64
2021/12/12 11:19:09;;;;;;;6.38;5.78;;;;;;;8.63;48.63;96316.94;5002644;28;20568;-66
2021/12/12 11:21:39;;;;;;;6.75;6.15;;;;;;;9.50;47.04;96299.19;5011057;28;20038;-65
2021/12/12 11:24:14;;;;;;;7.45;6.82;;;;;;;9.96;46.09;96306.25;5010552;28;20030;-66
2021/12/12 11:26:56;;;;;;;6.93;6.32;;;;;;;8.82;47.52;96293.38;5015953;28;20033;-65
2021/12/12 11:29:37;;;;;;;5.97;5.38;;;;;;;8.34;48.87;96287.41;5010806;28;20371;-66
2021/12/12 11:32:19;;;;;;;6.63;6.03;;;;;;;8.82;47.32;96286.22;5010652;28;20030;-65
2021/12/12 11:34:48;;;;;;;6.38;5.88;;;;;;;9.66;46.22;96284.00;5012494;28;20026;-65
2021/12/12 11:37:24;;;;;;;5.57;5.18;;;;;;;10.70;45.43;96288.63;5010826;28;20026;-67
2021/12/12 11:40:13;;;;;;;5.30;4.90;;;;;;;11.06;43.66;96259.91;5012771;28;20029;-68
2021/12/12 11:42:46;;;;;;;5.45;4.97;;;;;;;11.45;42.93;96270.47;5008068;28;20033;-69
2021/12/12 11:45:29;;;;;;;5.20;4.80;;;;;;;11.56;41.99;96268.50;5012022;28;20041;-69
2021/12/12 11:48:02;;;;;;;4.80;4.40;;;;;;;11.41;41.60;96264.94;5012086;28;20026;-71
2021/12/12 11:50:46;;;;;;;4.43;4.07;;;;;;;11.88;42.01;96291.94;5011823;28;20438;-69
2021/12/12 11:53:18;;;;;;;5.30;4.80;;;;;;;11.19;42.25;96297.31;5011749;28;20022;-70
2021/12/12 11:55:55;;;;;;;4.28;3.90;;;;;;;9.83;43.49;96231.38;5015114;28;20034;-70
2021/12/12 11:58:20;;;;;;;4.15;3.85;;;;;;;10.62;42.77;96293.47;5015305;28;20109;-70
2021/12/12 12:01:05;;;;;;;4.38;4.07;;;;;;;11.04;41.72;96209.59;5011238;28;20109;-70
2021/12/12 12:03:44;;;;;;;3.95;3.65;;;;;;;12.07;40.82;96251.97;5010031;28;20028;-70
2021/12/12 12:06:44;;;;;;;3.70;3.40;;;;;;;12.07;39.83;96283.97;5011807;28;20113;-70
2021/12/12 12:09:28;;;;;;;3.60;3.30;;;;;;;12.58;39.78;96289.44;4988788;28;20070;-70
2021/12/12 12:12:06;;;;;;;3.72;3.42;;;;;;;12.45;38.86;96220.78;5018358;28;20026;-71
2021/12/12 12:14:50;;;;;;;4.07;3.78;;;;;;;12.88;38.28;96282.88;5004886;28;20030;-70
2021/12/12 12:17:41;;;;;;;3.45;3.15;;;;;;;12.13;38.08;96219.63;5011994;28;20026;-70
2021/12/12 12:20:45;;;;;;;3.70;3.40;;;;;;;12.43;38.40;96197.03;5007678;28;20034;-69
2021/12/12 12:23:48;;;;;;;4.20;3.90;;;;;;;11.61;40.04;96282.56;5011209;28;20021;-70